createdAt,value
2018-01-02T00:01:20.408Z,8.10
2018-01-02T00:03:48.221Z,8.67
2018-01-02T00:06:16.062Z,8.30
2018-01-02T00:08:43.880Z,9.17
2018-01-02T00:11:11.711Z,9.27
2018-01-02T00:13:39.581Z,10.00
2018-01-02T00:16:07.383Z,9.93
2018-01-02T00:18:35.216Z,10.40
2018-01-02T00:21:03.057Z,10.80
2018-01-02T00:23:30.932Z,9.10
2018-01-02T00:25:58.790Z,10.20
2018-01-02T00:28:26.614Z,9.43
2018-01-02T00:30:54.476Z,8.40
2018-01-02T00:33:22.298Z,8.27
2018-01-02T00:35:50.128Z,8.80
2018-01-02T00:38:24.849Z,8.77
2018-01-02T00:40:52.687Z,7.50
2018-01-02T00:43:20.511Z,7.00
2018-01-02T00:45:48.357Z,6.17
2018-01-02T00:48:16.200Z,6.90
2018-01-02T00:50:44.032Z,6.03
2018-01-02T00:53:11.891Z,5.90
2018-01-02T00:55:39.727Z,6.50
2018-01-02T00:58:07.580Z,6.60
2018-01-02T01:00:35.413Z,5.90
2018-01-02T01:03:03.265Z,5.80
2018-01-02T01:05:31.101Z,5.77
2018-01-02T01:07:58.936Z,5.90
2018-01-02T01:10:26.785Z,6.75
2018-01-02T01:12:54.595Z,6.40
2018-01-02T01:15:22.444Z,6.47
2018-01-02T01:17:50.259Z,5.97
2018-01-02T01:20:18.092Z,7.70
2018-01-02T01:22:45.932Z,5.53
2018-01-02T01:25:13.755Z,5.37
2018-01-02T01:27:48.432Z,7.30
2018-01-02T01:30:16.248Z,6.03
2018-01-02T01:32:44.083Z,6.17
2018-01-02T01:35:11.909Z,6.57
2018-01-02T01:37:39.749Z,6.97
2018-01-02T01:40:07.571Z,7.03
2018-01-02T01:42:35.418Z,6.70
2018-01-02T01:45:03.247Z,7.03
2018-01-02T01:47:31.113Z,6.10
2018-01-02T01:49:58.988Z,8.30
2018-01-02T01:52:26.822Z,6.70
2018-01-02T01:54:54.648Z,7.30
2018-01-02T01:57:28.916Z,6.70
2018-01-02T01:59:56.756Z,8.07
2018-01-02T02:02:24.611Z,7.80
2018-01-02T02:04:52.432Z,8.20
2018-01-02T02:07:20.262Z,7.90
2018-01-02T02:09:48.096Z,7.83
2018-01-02T02:12:15.920Z,7.85
2018-01-02T02:14:43.732Z,7.77
2018-01-02T02:17:11.590Z,7.00
2018-01-02T02:19:39.448Z,8.17
2018-01-02T02:22:07.293Z,8.63
2018-01-02T02:24:35.124Z,8.23
2018-01-02T02:27:09.364Z,7.90
2018-01-02T02:29:37.204Z,7.97
2018-01-02T02:32:05.046Z,8.27
2018-01-02T02:34:32.893Z,8.00
2018-01-02T02:37:00.739Z,8.60
2018-01-02T02:39:28.577Z,8.23
2018-01-02T02:41:56.412Z,8.60
2018-01-02T02:44:24.264Z,8.25
2018-01-02T02:46:52.100Z,8.77
2018-01-02T02:49:19.960Z,9.10
2018-01-02T02:51:47.788Z,9.07
2018-01-02T02:54:15.634Z,8.25
2018-01-02T02:56:43.476Z,8.70
2018-01-02T02:59:11.343Z,8.70
2018-01-02T03:01:39.208Z,9.95
2018-01-02T03:04:07.075Z,8.33
2018-01-02T03:06:34.914Z,9.80
2018-01-02T03:09:09.613Z,9.65
2018-01-02T03:11:37.441Z,8.40
2018-01-02T03:14:05.280Z,9.50
2018-01-02T03:16:33.140Z,11.30
2018-01-02T03:19:04.019Z,11.90
2018-01-02T03:21:31.881Z,11.00
2018-01-02T03:23:59.744Z,10.50
2018-01-02T03:26:27.564Z,10.43
2018-01-02T03:28:55.403Z,13.15
2018-01-02T03:31:23.282Z,10.93
2018-01-02T03:33:51.095Z,13.60
2018-01-02T03:36:18.921Z,12.32
2018-01-02T03:38:46.766Z,12.40
2018-01-02T03:41:14.652Z,13.70
2018-01-02T03:43:42.489Z,10.20
2018-01-02T03:46:10.328Z,12.65
2018-01-02T03:48:44.788Z,13.13
2018-01-02T03:51:12.675Z,12.23
2018-01-02T03:53:40.496Z,13.20
2018-01-02T03:56:08.404Z,13.45
2018-01-02T03:58:36.236Z,12.88
2018-01-02T04:01:04.077Z,13.90
2018-01-02T04:03:31.892Z,13.95
2018-01-02T04:05:59.763Z,12.85
2018-01-02T04:08:27.600Z,12.35
2018-01-02T04:10:55.496Z,15.27
2018-01-02T04:13:23.358Z,13.73
2018-01-02T04:15:51.197Z,14.02
2018-01-02T04:18:19.015Z,14.02
2018-01-02T04:20:46.856Z,14.57
2018-01-02T04:23:14.693Z,15.02
2018-01-02T04:25:42.544Z,15.65
2018-01-02T04:28:10.396Z,14.00
2018-01-02T04:30:38.263Z,14.90
2018-01-02T04:33:06.106Z,16.80
2018-01-02T04:35:33.949Z,15.32
2018-01-02T04:38:01.856Z,16.37
2018-01-02T04:40:29.708Z,17.15
2018-01-02T04:42:57.566Z,16.35
2018-01-02T04:45:25.411Z,17.05
2018-01-02T04:47:59.302Z,15.88
2018-01-02T04:50:27.157Z,17.80
2018-01-02T04:52:55.000Z,14.60
2018-01-02T04:55:22.839Z,16.10
2018-01-02T04:57:57.592Z,14.02
2018-01-02T05:00:25.469Z,17.73
2018-01-02T05:02:53.319Z,16.75
2018-01-02T05:05:21.143Z,14.93
2018-01-02T05:07:49.002Z,17.35
2018-01-02T05:10:16.851Z,15.73
2018-01-02T05:12:44.734Z,18.40
2018-01-02T05:15:12.612Z,20.05
2018-01-02T05:17:40.480Z,16.02
2018-01-02T05:20:08.352Z,16.85
2018-01-02T05:22:36.205Z,15.70
2018-01-02T05:25:04.023Z,17.87
2018-01-02T05:27:31.891Z,15.30
2018-01-02T05:29:59.788Z,20.00
2018-01-02T05:32:27.615Z,20.40
2018-01-02T05:34:55.452Z,22.27
2018-01-02T05:37:29.973Z,19.70
2018-01-02T05:39:57.820Z,20.37
2018-01-02T05:42:25.647Z,16.08
2018-01-02T05:44:53.499Z,21.42
2018-01-02T05:47:21.330Z,21.60
2018-01-02T05:49:49.183Z,22.08
2018-01-02T05:52:17.033Z,18.73
2018-01-02T05:54:44.880Z,22.00
2018-01-02T05:57:12.726Z,23.58
2018-01-02T05:59:40.555Z,21.52
2018-01-02T06:02:08.511Z,21.20
2018-01-02T06:04:36.377Z,19.08
2018-01-02T06:07:04.259Z,23.87
2018-01-02T06:09:32.097Z,22.08
2018-01-02T06:11:59.944Z,21.52
2018-01-02T06:14:27.788Z,23.40
2018-01-02T06:17:02.207Z,21.02
2018-01-02T06:19:30.059Z,20.20
2018-01-02T06:21:57.910Z,19.87
2018-01-02T06:24:25.780Z,22.27
2018-01-02T06:26:53.605Z,21.33
2018-01-02T06:29:21.451Z,17.12
2018-01-02T06:31:49.292Z,23.23
2018-01-02T06:34:17.127Z,23.80
2018-01-02T06:36:44.967Z,22.23
2018-01-02T06:39:12.818Z,22.85
2018-01-02T06:41:40.694Z,23.73
2018-01-02T06:44:08.540Z,25.52
2018-01-02T06:46:36.398Z,23.90
2018-01-02T06:51:59.020Z,22.95
2018-01-02T06:54:26.894Z,24.75
2018-01-02T06:59:57.310Z,22.65
2018-01-02T07:02:25.220Z,19.00
2018-01-02T07:04:53.072Z,21.73
2018-01-02T07:07:20.912Z,19.20
2018-01-02T07:09:48.749Z,23.75
2018-01-02T07:12:16.604Z,20.98
2018-01-02T07:14:44.432Z,21.58
2018-01-02T07:17:12.440Z,28.20
2018-01-02T07:19:40.292Z,26.92
2018-01-02T07:22:08.156Z,21.95
2018-01-02T07:24:35.992Z,23.65
2018-01-02T07:27:04.745Z,26.92
2018-01-02T07:29:32.625Z,28.95
2018-01-02T07:32:01.497Z,29.60
2018-01-02T07:34:29.379Z,25.10
2018-01-02T07:36:57.236Z,28.83
2018-01-02T07:39:26.208Z,27.35
2018-01-02T07:41:54.073Z,23.70
2018-01-02T07:44:22.051Z,27.45
2018-01-02T07:46:49.895Z,23.40
2018-01-02T07:49:17.760Z,24.77
2018-01-02T07:51:45.633Z,24.50
2018-01-02T07:54:13.524Z,26.60
2018-01-02T07:56:41.351Z,30.70
2018-01-02T07:59:09.212Z,23.98
2018-01-02T08:01:37.046Z,27.98
2018-01-02T08:04:04.917Z,25.70
2018-01-02T08:06:32.785Z,29.23
2018-01-02T08:09:00.652Z,15.53
2018-01-02T08:11:28.507Z,24.50
2018-01-02T08:13:56.366Z,27.90
2018-01-02T08:16:24.215Z,26.70
2018-01-02T08:18:52.117Z,25.70
2018-01-02T08:21:19.978Z,19.67
2018-01-02T08:23:47.848Z,25.35
2018-01-02T08:26:15.693Z,24.97
2018-01-02T08:28:43.547Z,24.50
2018-01-02T08:31:11.379Z,21.67
2018-01-02T08:33:39.237Z,25.00
2018-01-02T08:36:07.077Z,25.80
2018-01-02T08:38:34.928Z,24.53
2018-01-02T08:41:02.771Z,23.57
2018-01-02T08:43:30.609Z,22.67
2018-01-02T08:45:58.459Z,27.40
2018-01-02T08:48:26.316Z,22.42
2018-01-02T08:50:54.160Z,22.33
2018-01-02T08:53:22.015Z,17.87
2018-01-02T08:55:49.872Z,19.63
2018-01-02T08:58:17.731Z,19.20
2018-01-02T09:00:45.600Z,15.50
2018-01-02T09:03:13.525Z,15.13
2018-01-02T09:05:53.021Z,22.08
2018-01-02T09:08:20.887Z,19.83
2018-01-02T09:10:48.779Z,16.27
2018-01-02T09:13:16.619Z,17.67
2018-01-02T09:15:44.470Z,12.80
2018-01-02T09:18:12.335Z,19.70
2018-01-02T09:20:40.148Z,14.40
2018-01-02T09:23:07.983Z,14.68
2018-01-02T09:25:35.848Z,18.20
2018-01-02T09:28:03.667Z,12.57
2018-01-02T09:30:31.560Z,16.83
2018-01-02T09:32:59.503Z,20.47
2018-01-02T09:35:27.514Z,12.50
2018-01-02T09:37:55.368Z,18.40
2018-01-02T09:40:23.259Z,13.57
2018-01-02T09:42:51.103Z,15.17
2018-01-02T09:45:18.945Z,14.67
2018-01-02T09:47:46.792Z,14.83
2018-01-02T09:50:14.668Z,10.13
2018-01-02T09:52:42.590Z,11.00
2018-01-02T09:55:10.439Z,12.37
2018-01-02T09:57:38.298Z,11.40
2018-01-02T10:00:06.175Z,15.20
2018-01-02T10:02:34.027Z,14.77
2018-01-02T10:05:01.920Z,15.20
2018-01-02T10:07:29.804Z,10.87
2018-01-02T10:09:57.639Z,15.00
2018-01-02T10:12:25.488Z,15.97
2018-01-02T10:14:53.340Z,14.63
2018-01-02T10:17:21.237Z,13.90
2018-01-02T10:19:49.068Z,14.17
2018-01-02T10:22:16.907Z,14.83
2018-01-02T10:24:44.731Z,14.83
2018-01-02T10:27:12.599Z,12.43
2018-01-02T10:29:40.448Z,13.23
2018-01-02T10:32:08.295Z,14.20
2018-01-02T10:34:36.131Z,11.13
2018-01-02T10:37:03.976Z,8.87
2018-01-02T10:39:31.810Z,7.77
2018-01-02T10:41:59.670Z,8.40
2018-01-02T10:44:27.516Z,7.57
2018-01-02T10:46:55.358Z,8.40
2018-01-02T10:49:23.243Z,13.47
2018-01-02T10:51:51.080Z,9.27
2018-01-02T10:54:18.917Z,9.40
2018-01-02T10:56:46.805Z,9.17
2018-01-02T10:59:14.726Z,9.70
2018-01-02T11:01:42.656Z,12.23
2018-01-02T11:04:10.564Z,10.53
2018-01-02T11:06:38.496Z,8.70
2018-01-02T11:09:06.403Z,9.83
2018-01-02T11:11:34.408Z,10.70
2018-01-02T11:14:02.398Z,12.63
2018-01-02T11:16:30.299Z,10.23
2018-01-02T11:18:58.210Z,11.97
2018-01-02T11:21:26.112Z,12.63
2018-01-02T11:23:54.049Z,11.83
2018-01-02T11:26:21.912Z,11.27
2018-01-02T11:28:49.798Z,9.93
2018-01-02T11:31:17.707Z,11.53
2018-01-02T11:33:45.587Z,11.60
2018-01-02T11:36:13.488Z,11.37
2018-01-02T11:38:41.311Z,10.77
2018-01-02T11:41:10.145Z,10.60
2018-01-02T11:43:38.025Z,10.07
2018-01-02T11:46:05.910Z,10.10
2018-01-02T11:48:33.786Z,9.17
2018-01-02T11:51:01.713Z,7.80
2018-01-02T11:53:29.653Z,9.67
2018-01-02T11:55:57.556Z,9.57
2018-01-02T11:58:25.417Z,7.23
2018-01-02T12:00:53.364Z,8.53
2018-01-02T12:03:21.236Z,6.73
2018-01-02T12:05:49.157Z,6.60
2018-01-02T12:08:17.061Z,7.40
2018-01-02T12:10:45.298Z,8.00
2018-01-02T12:13:13.366Z,5.63
2018-01-02T12:15:41.334Z,5.70
2018-01-02T12:18:09.246Z,6.30
2018-01-02T12:20:37.155Z,5.60
2018-01-02T12:23:05.092Z,6.83
2018-01-02T12:25:32.969Z,4.37
2018-01-02T12:28:00.886Z,5.10
2018-01-02T12:30:28.734Z,3.10
2018-01-02T12:32:56.638Z,6.50
2018-01-02T12:35:24.571Z,3.73
2018-01-02T12:37:52.484Z,5.43
2018-01-02T12:40:20.377Z,4.20
2018-01-02T12:42:48.278Z,6.37
2018-01-02T12:45:16.149Z,5.13
2018-01-02T12:47:44.073Z,4.90
2018-01-02T12:50:11.913Z,6.00
2018-01-02T12:52:39.793Z,4.17
2018-01-02T12:55:07.664Z,3.53
2018-01-02T12:57:35.535Z,5.70
2018-01-02T13:00:03.404Z,5.40
2018-01-02T13:02:31.263Z,5.63
2018-01-02T13:04:59.124Z,5.70
2018-01-02T13:07:26.968Z,4.33
2018-01-02T13:09:54.820Z,5.90
2018-01-02T13:12:22.643Z,6.47
2018-01-02T13:14:50.463Z,5.43
2018-01-02T13:17:18.333Z,4.90
2018-01-02T13:19:46.172Z,6.10
2018-01-02T13:22:14.031Z,4.57
2018-01-02T13:24:41.872Z,9.17
2018-01-02T13:27:09.729Z,7.23
2018-01-02T13:29:37.555Z,3.53
2018-01-02T13:32:05.435Z,5.27
2018-01-02T13:34:33.250Z,5.90
2018-01-02T13:37:01.084Z,4.53
2018-01-02T13:39:28.932Z,5.50
2018-01-02T13:41:56.753Z,6.27
2018-01-02T13:44:24.600Z,6.50
2018-01-02T13:46:52.444Z,4.67
2018-01-02T13:49:20.629Z,5.67
2018-01-02T13:51:48.452Z,7.40
2018-01-02T13:54:16.289Z,7.30
2018-01-02T13:56:44.117Z,4.50
2018-01-02T13:59:11.959Z,6.30
2018-01-02T14:01:39.776Z,5.50
2018-01-02T14:04:07.632Z,5.40
2018-01-02T14:06:35.441Z,5.63
2018-01-02T14:09:03.292Z,6.40
2018-01-02T14:11:31.128Z,5.87
2018-01-02T14:13:58.961Z,5.50
2018-01-02T14:16:26.768Z,6.70
2018-01-02T14:18:54.594Z,5.83
2018-01-02T14:21:22.404Z,5.47
2018-01-02T14:23:50.248Z,6.27
2018-01-02T14:26:18.073Z,6.13
2018-01-02T14:28:45.900Z,8.47
2018-01-02T14:31:13.727Z,6.27
2018-01-02T14:33:41.573Z,5.53
2018-01-02T14:36:09.398Z,5.70
2018-01-02T14:38:37.234Z,4.90
2018-01-02T14:41:05.068Z,7.87
2018-01-02T14:43:32.889Z,3.57
2018-01-02T14:46:00.711Z,5.60
2018-01-02T14:48:28.669Z,5.43
2018-01-02T14:50:56.523Z,6.30
2018-01-02T14:53:24.372Z,5.93
2018-01-02T14:55:53.179Z,5.20
2018-01-02T14:58:21.080Z,3.53
2018-01-02T15:00:48.935Z,3.23
2018-01-02T15:03:16.797Z,3.87
2018-01-02T15:05:44.632Z,4.33
2018-01-02T15:08:12.466Z,4.17
2018-01-02T15:13:22.384Z,4.33
2018-01-02T15:15:50.201Z,3.97
2018-01-02T15:18:18.040Z,5.13
2018-01-02T15:20:47.141Z,4.93
2018-01-02T15:23:15.024Z,4.10
2018-01-02T15:25:42.847Z,4.20
2018-01-02T15:28:10.813Z,5.10
2018-01-02T15:30:38.636Z,4.97
2018-01-02T15:33:06.531Z,2.60
2018-01-02T15:35:34.432Z,4.43
2018-01-02T15:38:02.304Z,5.03
2018-01-02T15:40:30.156Z,6.90
2018-01-02T15:43:00.051Z,4.40
2018-01-02T15:45:28.598Z,4.93
2018-01-02T15:47:56.553Z,5.20
2018-01-02T15:50:24.440Z,3.90
2018-01-02T15:52:52.340Z,4.80
2018-01-02T15:55:20.203Z,7.50
2018-01-02T15:57:48.072Z,4.57
2018-01-02T16:00:15.945Z,5.03
2018-01-02T16:02:43.804Z,28.77
2018-01-02T16:05:11.647Z,16.40
2018-01-02T16:07:39.508Z,9.20
2018-01-02T16:10:07.395Z,6.53
2018-01-02T16:12:53.137Z,6.43
2018-01-02T16:15:21.112Z,4.77
2018-01-02T16:17:51.923Z,4.43
2018-01-02T16:23:14.318Z,4.80
2018-01-02T16:25:53.140Z,5.40
2018-01-02T16:31:19.277Z,4.73
2018-01-02T16:33:47.141Z,6.53
2018-01-02T16:36:14.984Z,4.90
2018-01-02T16:38:57.933Z,5.40
2018-01-02T16:41:25.800Z,5.43
2018-01-02T16:43:53.644Z,5.00
2018-01-02T16:46:21.490Z,5.60
2018-01-02T16:48:49.369Z,6.27
2018-01-02T16:51:17.240Z,5.93
2018-01-02T16:53:45.088Z,4.53
2018-01-02T16:56:12.951Z,6.63
2018-01-02T16:58:40.795Z,4.43
2018-01-02T17:01:08.633Z,4.90
2018-01-02T17:03:36.513Z,5.57
2018-01-02T17:06:04.340Z,5.93
2018-01-02T17:08:33.073Z,6.73
2018-01-02T17:11:00.931Z,4.53
2018-01-02T17:13:28.808Z,5.37
2018-01-02T17:15:56.684Z,5.43
2018-01-02T17:18:30.809Z,6.50
2018-01-02T17:20:58.651Z,8.10
2018-01-02T17:23:26.508Z,6.07
2018-01-02T17:25:54.390Z,7.00
2018-01-02T17:28:22.293Z,7.47
2018-01-02T17:30:50.127Z,8.47
2018-01-02T17:33:18.010Z,8.97
2018-01-02T17:35:45.859Z,8.70
2018-01-02T17:38:13.731Z,8.90
2018-01-02T17:40:41.571Z,8.70
2018-01-02T17:43:09.438Z,10.90
2018-01-02T17:45:37.267Z,8.50
2018-01-02T17:48:05.123Z,9.00
2018-01-02T17:50:32.979Z,8.50
2018-01-02T17:53:00.832Z,9.77
2018-01-02T17:55:28.677Z,10.00
2018-01-02T17:57:56.544Z,9.40
2018-01-02T18:00:24.437Z,9.50
2018-01-02T18:02:52.624Z,12.70
2018-01-02T18:05:20.478Z,9.33
2018-01-02T18:07:48.382Z,9.80
2018-01-02T18:10:16.282Z,9.47
2018-01-02T18:12:44.155Z,10.20
2018-01-02T18:15:12.043Z,10.70
2018-01-02T18:17:39.901Z,9.33
2018-01-02T18:20:07.740Z,10.83
2018-01-02T18:22:37.265Z,11.57
2018-01-02T18:25:05.243Z,10.50
2018-01-02T18:27:33.109Z,9.93
2018-01-02T18:30:01.115Z,9.00
2018-01-02T18:32:28.956Z,13.80
2018-01-02T18:34:56.782Z,11.40
2018-01-02T18:37:24.709Z,9.57
2018-01-02T18:39:53.137Z,12.47
2018-01-02T18:42:21.012Z,11.60
2018-01-02T18:44:49.533Z,11.53
2018-01-02T18:47:17.969Z,12.50
2018-01-02T18:49:45.866Z,13.20
2018-01-02T18:52:13.725Z,7.53
2018-01-02T18:57:20.880Z,14.40
2018-01-02T18:59:55.717Z,13.23
2018-01-02T19:02:23.692Z,10.52
2018-01-02T19:04:52.555Z,12.90
2018-01-02T19:07:23.903Z,13.43
2018-01-02T19:09:51.736Z,14.70
2018-01-02T19:12:21.343Z,13.63
2018-01-02T19:14:49.260Z,15.20
2018-01-02T19:17:21.204Z,13.37
2018-01-02T19:19:52.793Z,13.47
2018-01-02T19:22:20.661Z,13.27
2018-01-02T19:24:48.487Z,16.70
2018-01-02T19:30:20.884Z,16.48
2018-01-02T19:32:49.922Z,13.65
2018-01-02T19:35:17.973Z,16.52
2018-01-02T19:37:46.300Z,15.20
2018-01-02T19:40:14.133Z,13.67
2018-01-02T19:42:42.012Z,15.27
2018-01-02T19:45:09.873Z,15.33
2018-01-02T19:47:37.733Z,12.27
2018-01-02T19:50:05.591Z,14.17
2018-01-02T19:52:33.492Z,15.73
2018-01-02T19:55:01.381Z,14.25
2018-01-02T20:00:28.956Z,15.43
2018-01-02T20:02:56.806Z,17.12
2018-01-02T20:05:24.647Z,18.00
2018-01-02T20:07:52.511Z,17.60
2018-01-02T20:10:20.343Z,18.87
2018-01-02T20:12:48.192Z,15.90
2018-01-02T20:15:16.033Z,16.77
2018-01-02T20:17:43.869Z,18.00
2018-01-02T20:20:11.710Z,18.27
2018-01-02T20:22:39.560Z,15.63
2018-01-02T20:25:07.387Z,18.08
2018-01-02T20:27:35.268Z,19.67
2018-01-02T20:30:03.169Z,21.27
2018-01-02T20:32:31.087Z,20.15
2018-01-02T20:34:59.084Z,19.48
2018-01-02T20:37:26.944Z,18.30
2018-01-02T20:39:54.791Z,15.57
2018-01-02T20:42:22.638Z,18.48
2018-01-02T20:44:50.481Z,19.77
2018-01-02T20:47:18.337Z,18.73
2018-01-02T20:49:46.240Z,19.60
2018-01-02T20:52:15.220Z,18.47
2018-01-02T20:54:43.476Z,19.02
2018-01-02T20:57:11.342Z,21.02
2018-01-02T20:59:39.209Z,20.95
2018-01-02T21:02:07.088Z,21.00
2018-01-02T21:04:34.945Z,19.90
2018-01-02T21:07:02.773Z,17.80
2018-01-02T21:09:30.628Z,20.33
2018-01-02T21:11:58.509Z,19.15
2018-01-02T21:14:27.639Z,18.27
2018-01-02T21:16:55.929Z,20.50
2018-01-02T21:19:23.795Z,19.77
2018-01-02T21:21:51.641Z,21.67
2018-01-02T21:24:19.522Z,19.85
2018-01-02T21:29:28.770Z,19.63
2018-01-02T21:31:56.603Z,20.52
2018-01-02T21:34:24.432Z,18.05
2018-01-02T21:36:52.291Z,18.12
2018-01-02T21:39:20.119Z,19.17
2018-01-02T21:41:47.985Z,19.67
2018-01-02T21:44:15.835Z,17.80
2018-01-02T21:46:43.716Z,20.60
2018-01-02T21:49:11.618Z,19.05
2018-01-02T21:51:39.466Z,21.65
2018-01-02T21:54:07.322Z,19.23
2018-01-02T21:56:35.214Z,19.50
2018-01-02T21:59:03.088Z,20.25
2018-01-02T22:01:30.935Z,22.13
2018-01-02T22:03:58.816Z,19.70
2018-01-02T22:06:26.667Z,18.45
2018-01-02T22:08:54.552Z,19.97
2018-01-02T22:11:22.448Z,18.67
2018-01-02T22:13:50.300Z,19.35
2018-01-02T22:16:18.157Z,18.65
2018-01-02T22:18:55.647Z,19.20
2018-01-02T22:21:23.489Z,12.45
2018-01-02T22:23:51.340Z,15.55
2018-01-02T22:26:19.180Z,19.67
2018-01-02T22:28:47.047Z,17.52
2018-01-02T22:31:14.882Z,14.80
2018-01-02T22:33:42.745Z,18.40
2018-01-02T22:36:10.612Z,15.60
2018-01-02T22:38:38.486Z,14.85
2018-01-02T22:41:06.351Z,14.87
2018-01-02T22:43:34.205Z,18.33
2018-01-02T22:46:02.045Z,15.20
2018-01-02T22:48:29.919Z,15.37
2018-01-02T22:50:57.843Z,14.20
2018-01-02T22:53:25.691Z,14.50
2018-01-02T22:55:53.555Z,12.02
2018-01-02T22:58:28.037Z,14.10
2018-01-02T23:00:55.925Z,15.48
2018-01-02T23:03:23.764Z,14.50
2018-01-02T23:05:51.615Z,14.02
2018-01-02T23:08:27.538Z,13.10
2018-01-02T23:10:55.403Z,14.60
2018-01-02T23:13:23.267Z,13.13
2018-01-02T23:15:51.121Z,12.65
2018-01-02T23:18:25.126Z,14.55
2018-01-02T23:23:46.976Z,15.43
2018-01-02T23:26:24.818Z,12.23
2018-01-02T23:28:53.460Z,14.68
2018-01-02T23:31:21.282Z,13.38
2018-01-02T23:33:49.120Z,14.87
2018-01-02T23:36:17.012Z,15.15
2018-01-02T23:38:58.106Z,15.50
2018-01-02T23:41:25.997Z,13.35
2018-01-02T23:43:53.842Z,11.43
2018-01-02T23:46:21.687Z,12.60
2018-01-02T23:48:49.553Z,13.10
2018-01-02T23:51:17.404Z,15.68
2018-01-02T23:53:45.297Z,13.27
2018-01-02T23:56:13.136Z,13.07
2018-01-02T23:58:40.958Z,11.43
